Accueil
METAR-TAF:

METAR-TAF

Aéroports :

Aéroport international de Rabat-Salé

Rabat, Maroc

latitude: 34-03N, longitude: 006-46W, altitude: 84 m

Observation

Le bulletin a été fait il y a 27 minutes, à 20:30 UTC
Vent calme
Température 21°C
Humidité 78%
Pression 1018 hPa
Visibilité: 6000 m

METAR: GMME 192030Z 00000KT 6000 NSC 21/17 Q1018 NOSIG

Heure: 21:57 (20:57 UTC)

Prévision

Le bulletin a été fait il y a 3 heures et 57 minutes, à 17:00 UTC
Prévision valable du 19 à 18 UTC au 20 à 24 UTC
Vent 10 kt de nord-ouest
Visibilité: 8000 m
Temporairement
du 20 à 00 UTC au 20 à 09 UTC
Vent 2 kt de direction variable
Visibilité: 3000 m
Nuages épars à une hauteur de 1000 ft
Nuages épars à une hauteur de 1500 ft
brume

TAF: GMME 191700Z 1918/2024 32010KT 8000 NSC TEMPO 2000/2009 VRB02KT 3000 BR SCT010 SCT015

Observations et prévisions météorologiques de plus de 4000 aéroports (messages METAR et TAF).

Les stations disponibles sont représentées par des disques jaunes et rouges sur la carte.

Passer la souris dessus pour voir le nom de la station.

Cliquer dessus pour voir les observations et prévisions météorologiques.

Pour changer de carte: cliquez sur les boutons verts avec une croix noire pour zoomer, sur le bouton vert avec un tiret pour effectuer un zoom arrière, ou sur les flèches vertes pour les cartes adjacentes.


METAR-TAF: